Time;durP1;ratioP1;P1;durP2;ratioP2;P2;SDS_P1;SDS_P2;PMS_P1;PMS_P2;Temp;Humidity;BMP_temperature;BMP_pressure;BME280_temperature;BME280_humidity;BME280_pressure;Samples;Min_cycle;Max_cycle;Signal;HPM_P1;HPM_P2
2022/09/23 00:02:19;;;;;;;25.55;9.73;;;;;;;12.19;83.34;101665.88;5006788;28;20537;-38
2022/09/23 00:04:45;;;;;;;24.95;10.18;;;;;;;12.16;83.64;101658.13;5009314;28;20030;-41
2022/09/23 00:07:11;;;;;;;20.85;9.75;;;;;;;12.11;83.68;101657.81;5010851;28;20049;-42
2022/09/23 00:09:36;;;;;;;20.75;9.75;;;;;;;12.07;83.66;101647.38;5011460;28;20481;-42
2022/09/23 00:12:01;;;;;;;24.38;10.85;;;;;;;12.01;83.83;101653.47;5010915;28;20034;-41
2022/09/23 00:14:27;;;;;;;18.70;10.30;;;;;;;11.98;84.74;101653.81;5011024;28;20037;-42
2022/09/23 00:16:52;;;;;;;20.08;10.38;;;;;;;11.98;84.66;101653.81;5011320;28;20761;-42
2022/09/23 00:19:17;;;;;;;20.67;9.70;;;;;;;11.95;84.44;101648.72;5011321;28;20501;-42
2022/09/23 00:21:43;;;;;;;23.58;10.02;;;;;;;11.91;84.07;101652.81;4993224;28;20048;-41
2022/09/23 00:24:08;;;;;;;23.85;10.38;;;;;;;11.89;84.02;101646.72;4993870;28;20068;-42
2022/09/23 00:26:34;;;;;;;24.60;10.40;;;;;;;11.88;84.33;101645.06;4994402;28;20018;-41
2022/09/23 00:28:59;;;;;;;22.77;10.40;;;;;;;11.85;84.33;101648.06;5011862;28;20243;-40
2022/09/23 00:31:26;;;;;;;21.88;9.73;;;;;;;11.82;84.76;101637.59;5010918;28;20511;-42
2022/09/23 00:33:55;;;;;;;22.20;10.30;;;;;;;11.79;84.66;101646.03;5010745;28;20037;-43
2022/09/23 00:36:21;;;;;;;23.83;9.77;;;;;;;11.74;84.80;101637.59;5010680;28;20022;-41
2022/09/23 00:38:46;;;;;;;17.52;9.88;;;;;;;11.68;84.94;101635.59;5010239;28;20385;-42
2022/09/23 00:41:14;;;;;;;20.35;10.18;;;;;;;11.66;85.49;101641.16;5010735;28;20036;-42
2022/09/23 00:43:47;;;;;;;20.75;9.88;;;;;;;11.65;85.47;101632.22;5001726;28;20370;-41
2022/09/23 00:46:35;;;;;;;21.67;9.98;;;;;;;11.63;85.42;101628.84;4993592;28;20034;-40
2022/09/23 00:49:12;;;;;;;20.00;9.70;;;;;;;11.59;85.46;101634.78;5010819;28;20030;-42
2022/09/23 00:51:42;;;;;;;18.88;10.35;;;;;;;11.52;85.32;101623.81;5010844;28;20136;-41
2022/09/23 00:54:08;;;;;;;22.02;9.75;;;;;;;11.54;85.97;101629.03;5009408;28;20068;-41
2022/09/23 00:56:33;;;;;;;18.73;10.10;;;;;;;11.53;85.69;101639.00;5010489;28;20073;-41
2022/09/23 00:59:00;;;;;;;21.05;10.05;;;;;;;11.50;85.62;101633.91;4993135;28;20465;-42
2022/09/23 01:01:25;;;;;;;21.15;10.13;;;;;;;11.51;86.30;101641.00;4990487;28;20045;-42
2022/09/23 01:03:53;;;;;;;24.33;10.57;;;;;;;11.49;86.24;101632.25;5009933;28;20022;-40
2022/09/23 01:06:19;;;;;;;20.20;10.10;;;;;;;11.49;86.15;101632.25;5010529;28;20126;-42
2022/09/23 01:08:45;;;;;;;23.98;10.82;;;;;;;11.49;86.45;101632.25;5010287;28;20420;-40
2022/09/23 01:11:36;;;;;;;26.42;10.38;;;;;;;11.48;86.46;101635.09;4992887;28;20065;-42
2022/09/23 01:14:08;;;;;;;25.55;10.98;;;;;;;11.45;86.04;101638.13;4979569;28;20474;-42
2022/09/23 01:16:54;;;;;;;19.00;9.70;;;;;;;11.40;86.03;101635.94;5010378;28;20203;-41
2022/09/23 01:19:42;;;;;;;21.67;9.50;;;;;;;11.37;86.11;101623.66;5005237;28;20413;-40
2022/09/23 01:22:28;;;;;;;20.88;10.15;;;;;;;11.33;85.93;101613.38;5009812;28;20030;-41
2022/09/23 01:25:05;;;;;;;24.83;11.02;;;;;;;11.31;86.47;101612.69;4986097;28;20051;-42
2022/09/23 01:27:36;;;;;;;18.70;10.52;;;;;;;11.25;86.39;101613.38;5010245;28;20084;-40
2022/09/23 01:30:09;;;;;;;24.10;10.95;;;;;;;11.20;86.65;101612.00;5010990;28;20036;-41
2022/09/23 01:32:41;;;;;;;20.67;10.80;;;;;;;11.16;86.92;101607.13;4993775;28;20026;-40
2022/09/23 01:35:21;;;;;;;19.40;10.35;;;;;;;11.13;86.70;101600.22;4992616;28;20033;-42
2022/09/23 01:38:03;;;;;;;19.98;11.02;;;;;;;11.10;86.84;101603.25;4974908;28;20022;-41
2022/09/23 01:40:36;;;;;;;27.50;11.35;;;;;;;11.08;86.98;101597.16;4974580;28;20040;-41
2022/09/23 01:43:32;;;;;;;22.65;11.35;;;;;;;11.07;87.06;101595.50;5004977;28;20108;-41
2022/09/23 01:45:59;;;;;;;20.98;11.13;;;;;;;11.08;87.19;101591.78;4987686;28;20046;-41
2022/09/23 01:48:41;;;;;;;26.00;11.80;;;;;;;11.08;87.30;101596.34;5009852;28;20529;-41
2022/09/23 01:51:26;;;;;;;21.63;12.00;;;;;;;11.10;87.37;101588.94;4992535;28;20120;-42
2022/09/23 01:53:57;;;;;;;24.05;12.57;;;;;;;11.11;87.63;101586.09;4978786;28;20389;-42
2022/09/23 01:56:25;;;;;;;20.27;11.20;;;;;;;11.11;87.54;101587.91;5009970;28;20026;-40
2022/09/23 01:58:58;;;;;;;25.35;12.30;;;;;;;11.14;87.62;101584.91;4992210;28;20607;-42
2022/09/23 02:01:29;;;;;;;21.55;11.45;;;;;;;11.18;87.14;101594.34;5009860;28;20037;-39
2022/09/23 02:04:02;;;;;;;21.33;11.43;;;;;;;11.20;86.83;101593.16;4991652;28;20184;-41
2022/09/23 02:06:32;;;;;;;19.17;11.13;;;;;;;11.24;86.38;101584.72;5010977;23;20049;-39
2022/09/23 02:09:05;;;;;;;23.63;11.38;;;;;;;11.25;86.55;101584.56;4980828;28;20061;-38
2022/09/23 02:11:35;;;;;;;21.38;11.73;;;;;;;11.24;85.78;101582.03;4991577;28;20127;-40
2022/09/23 02:14:00;;;;;;;25.05;11.88;;;;;;;11.20;85.89;101581.53;4976499;28;20069;-38
2022/09/23 02:16:46;;;;;;;29.67;13.18;;;;;;;11.19;86.34;101582.56;4992137;28;20034;-38
2022/09/23 02:19:13;;;;;;;23.92;12.02;;;;;;;11.18;86.60;101584.38;4964164;28;20035;-38
2022/09/23 02:21:48;;;;;;;28.98;12.98;;;;;;;11.19;86.79;101580.69;4997994;28;20026;-37
2022/09/23 02:24:17;;;;;;;30.50;11.80;;;;;;;11.21;86.93;101586.75;4999267;28;20071;-37
2022/09/23 02:26:51;;;;;;;24.95;12.07;;;;;;;11.23;86.78;101578.50;4980767;28;20027;-38
2022/09/23 02:29:20;;;;;;;27.50;12.30;;;;;;;11.26;86.74;101580.84;4998594;28;20023;-39
2022/09/23 02:31:54;;;;;;;21.10;11.82;;;;;;;11.27;86.89;101571.78;4980876;28;20037;-39
2022/09/23 02:34:39;;;;;;;25.33;12.57;;;;;;;11.23;86.31;101569.59;4980755;28;20023;-38
2022/09/23 02:37:11;;;;;;;26.75;12.80;;;;;;;11.19;86.09;101575.31;4979197;28;20054;-38
2022/09/23 02:39:56;;;;;;;23.45;12.20;;;;;;;11.21;86.44;101562.50;4976856;28;20081;-39
2022/09/23 02:42:28;;;;;;;23.52;12.55;;;;;;;11.23;87.21;101556.13;4992149;28;20118;-38
2022/09/23 02:44:54;;;;;;;22.52;12.85;;;;;;;11.25;87.39;101554.09;4996238;28;20034;-38
2022/09/23 02:47:23;;;;;;;26.35;12.68;;;;;;;11.28;87.25;101548.38;4997520;28;20546;-38
2022/09/23 02:49:48;;;;;;;23.50;12.77;;;;;;;11.32;87.39;101553.25;4996871;28;20026;-38
2022/09/23 02:52:14;;;;;;;27.75;12.88;;;;;;;11.33;86.83;101546.00;4997875;28;20041;-38
2022/09/23 02:54:39;;;;;;;22.58;12.57;;;;;;;11.35;87.17;101539.44;4980182;28;20145;-39
2022/09/23 02:57:05;;;;;;;25.77;12.48;;;;;;;11.38;86.80;101539.09;4997372;28;20470;-37
2022/09/23 02:59:32;;;;;;;27.85;13.60;;;;;;;11.33;86.34;101536.06;4997246;28;20341;-39
2022/09/23 03:02:33;;;;;;;24.80;13.60;;;;;;;11.35;86.73;101533.22;4997814;28;20115;-38
2022/09/23 03:05:22;;;;;;;24.63;13.73;;;;;;;11.38;86.94;101532.88;4942483;28;20137;-38
2022/09/23 03:08:03;;;;;;;25.70;12.35;;;;;;;11.38;86.73;101533.69;4978073;28;20152;-38
2022/09/23 03:11:04;;;;;;;28.13;13.48;;;;;;;11.38;86.55;101532.88;4993901;28;20034;-38
2022/09/23 03:14:03;;;;;;;26.98;14.27;;;;;;;11.40;86.57;101537.06;4978422;28;20027;-38
2022/09/23 03:16:29;;;;;;;33.08;14.57;;;;;;;11.40;86.46;101530.81;4996262;28;20029;-39
2022/09/23 03:19:11;;;;;;;30.10;13.48;;;;;;;11.38;86.23;101528.31;4996846;28;20030;-39
2022/09/23 03:21:45;;;;;;;24.50;13.95;;;;;;;11.42;87.03;101529.63;4979282;28;20096;-39
2022/09/23 03:24:13;;;;;;;30.20;13.98;;;;;;;11.43;86.94;101530.50;4995541;28;20037;-38
2022/09/23 03:26:39;;;;;;;27.50;13.25;;;;;;;11.47;86.92;101522.91;4979402;28;20573;-39
2022/09/23 03:29:08;;;;;;;25.75;13.52;;;;;;;11.46;86.72;101524.75;4978560;28;20046;-39
2022/09/23 03:31:34;;;;;;;27.02;14.10;;;;;;;11.46;85.85;101530.16;4995526;28;20033;-39
2022/09/23 03:34:02;;;;;;;27.52;14.30;;;;;;;11.45;85.96;101525.75;4976705;28;20030;-38
2022/09/23 03:36:50;;;;;;;28.27;13.93;;;;;;;11.46;86.46;101526.63;4976081;28;20041;-40
2022/09/23 03:39:29;;;;;;;22.73;13.13;;;;;;;11.48;86.31;101519.19;4966924;28;20030;-38
2022/09/23 03:41:58;;;;;;;28.08;13.98;;;;;;;11.49;86.13;101520.88;4979022;28;20027;-38
2022/09/23 03:44:23;;;;;;;30.88;14.32;;;;;;;11.50;86.56;101514.47;4994979;28;20048;-38
2022/09/23 03:46:49;;;;;;;30.58;14.88;;;;;;;11.53;86.85;101515.00;4996233;28;20430;-38
2022/09/23 03:49:23;;;;;;;28.05;13.95;;;;;;;11.57;86.99;101513.63;4996119;28;20482;-38
2022/09/23 03:51:49;;;;;;;33.45;14.07;;;;;;;11.62;86.97;101505.03;4986830;28;20165;-38
2022/09/23 03:54:14;;;;;;;30.50;14.43;;;;;;;11.66;86.67;101500.94;4983612;28;20153;-39
2022/09/23 03:56:40;;;;;;;22.73;13.70;;;;;;;11.64;85.93;101503.84;4996604;28;20045;-38
2022/09/23 03:59:05;;;;;;;30.58;13.43;;;;;;;11.66;85.70;101503.63;4996813;28;20026;-37
2022/09/23 04:01:31;;;;;;;29.33;14.07;;;;;;;11.67;85.47;101496.41;4984079;28;20077;-39
2022/09/23 04:03:56;;;;;;;32.38;14.85;;;;;;;11.70;85.50;101498.75;4978365;28;20061;-38
2022/09/23 04:06:22;;;;;;;33.97;14.23;;;;;;;11.74;85.33;101492.00;4994878;28;20030;-40
2022/09/23 04:08:47;;;;;;;26.35;13.57;;;;;;;11.76;85.27;101495.38;4994285;28;20041;-39
2022/09/23 04:11:13;;;;;;;26.35;13.80;;;;;;;11.81;85.53;101490.28;4994529;28;20096;-38
2022/09/23 04:13:39;;;;;;;32.92;14.55;;;;;;;11.84;85.47;101495.31;4976817;28;20036;-39
2022/09/23 04:16:04;;;;;;;27.30;14.45;;;;;;;11.83;85.00;101482.88;4974385;28;20045;-37
2022/09/23 04:18:30;;;;;;;36.33;14.10;;;;;;;11.83;85.18;101490.97;4995042;28;20030;-37
2022/09/23 04:20:59;;;;;;;30.27;13.40;;;;;;;11.82;85.56;101487.44;4996228;28;20038;-39
2022/09/23 04:23:27;;;;;;;35.20;14.88;;;;;;;11.82;85.90;101489.25;4991259;28;20022;-38
2022/09/23 04:25:53;;;;;;;28.30;14.70;;;;;;;11.83;85.59;101493.66;4993923;28;20360;-39
2022/09/23 04:28:19;;;;;;;29.58;15.25;;;;;;;11.85;85.47;101486.25;4976395;28;20035;-38
2022/09/23 04:30:47;;;;;;;28.00;13.50;;;;;;;11.87;85.52;101484.22;4994590;28;20393;-38
2022/09/23 04:33:13;;;;;;;28.73;14.70;;;;;;;11.87;85.09;101486.91;4993117;28;20268;-39
2022/09/23 04:35:39;;;;;;;31.50;15.15;;;;;;;11.91;84.90;101488.25;4993785;28;20042;-37
2022/09/23 04:38:05;;;;;;;34.00;14.35;;;;;;;11.96;84.91;101485.06;4994476;28;20038;-36
2022/09/23 04:40:31;;;;;;;34.55;14.32;;;;;;;11.97;84.64;101487.56;4993359;28;20030;-37
2022/09/23 04:42:56;;;;;;;33.28;14.60;;;;;;;12.01;84.46;101482.66;4972554;28;20154;-39
2022/09/23 04:45:22;;;;;;;34.63;14.82;;;;;;;12.05;84.87;101482.13;4993477;28;20026;-38
2022/09/23 04:47:47;;;;;;;36.95;15.45;;;;;;;12.06;84.87;101483.81;4994923;28;20105;-37
2022/09/23 04:50:12;;;;;;;32.40;15.38;;;;;;;12.08;85.00;101491.72;4995231;28;20073;-39
2022/09/23 04:52:38;;;;;;;29.70;14.65;;;;;;;12.11;85.12;101485.97;4994602;28;20469;-37
2022/09/23 04:55:03;;;;;;;38.42;15.50;;;;;;;12.14;85.27;101485.63;4994146;28;20062;-37
2022/09/23 04:57:29;;;;;;;30.95;15.85;;;;;;;12.16;85.34;101485.44;4992581;28;20028;-36
2022/09/23 04:59:56;;;;;;;41.67;17.77;;;;;;;12.16;85.09;101483.56;4993309;28;20038;-40
2022/09/23 05:02:24;;;;;;;32.80;15.20;;;;;;;12.17;85.52;101484.44;4994776;28;20066;-40
2022/09/23 05:04:49;;;;;;;30.10;16.30;;;;;;;12.17;86.04;101489.84;4981037;28;20026;-36
2022/09/23 05:07:16;;;;;;;37.08;16.65;;;;;;;12.16;85.99;101490.84;4993588;28;20073;-39
2022/09/23 05:09:41;;;;;;;32.28;16.08;;;;;;;12.18;86.37;101491.50;4994476;28;20022;-38
2022/09/23 05:12:06;;;;;;;37.42;16.58;;;;;;;12.17;86.16;101487.97;4993738;28;20057;-39
2022/09/23 05:14:32;;;;;;;35.15;16.40;;;;;;;12.22;85.99;101487.44;4994059;28;20034;-36
2022/09/23 05:16:57;;;;;;;35.05;16.42;;;;;;;12.22;85.76;101482.06;4989874;28;20031;-39
2022/09/23 05:19:22;;;;;;;35.38;15.90;;;;;;;12.23;86.19;101483.72;4992072;28;20054;-38
2022/09/23 05:21:48;;;;;;;35.63;16.25;;;;;;;12.26;86.35;101494.16;4991639;28;20050;-39
2022/09/23 05:24:13;;;;;;;36.88;16.08;;;;;;;12.28;86.19;101492.13;4992899;28;20015;-38
2022/09/23 05:26:39;;;;;;;33.85;16.00;;;;;;;12.31;86.12;101494.47;4993400;28;20088;-38
2022/09/23 05:29:04;;;;;;;40.90;16.38;;;;;;;12.33;86.03;101495.16;4993467;28;20026;-38
2022/09/23 05:31:30;;;;;;;35.95;15.95;;;;;;;12.34;85.86;101493.28;4975341;28;20117;-39
2022/09/23 05:33:57;;;;;;;44.03;16.65;;;;;;;12.36;85.71;101488.56;4994591;28;20068;-40
2022/09/23 05:36:24;;;;;;;35.63;16.17;;;;;;;12.38;85.78;101491.91;4994421;28;20431;-38
2022/09/23 05:38:50;;;;;;;37.33;16.73;;;;;;;12.37;85.47;101493.75;4993908;28;20031;-37
2022/09/23 05:41:16;;;;;;;33.22;15.65;;;;;;;12.39;85.12;101494.41;4995950;28;20038;-37
2022/09/23 05:43:42;;;;;;;43.08;16.90;;;;;;;12.41;85.49;101486.16;4997274;28;20109;-40
2022/09/23 05:46:12;;;;;;;60.60;18.25;;;;;;;12.44;85.56;101486.63;4998356;28;20145;-39
2022/09/23 05:48:38;;;;;;;46.30;17.02;;;;;;;12.45;85.67;101496.44;4980093;28;20118;-37
2022/09/23 05:51:07;;;;;;;44.20;17.15;;;;;;;12.48;85.77;101487.09;4993979;28;20035;-39
2022/09/23 05:53:33;;;;;;;38.20;16.50;;;;;;;12.47;85.81;101491.66;4990154;28;20084;-38
2022/09/23 05:55:58;;;;;;;41.92;18.20;;;;;;;12.51;85.73;101493.00;4978383;28;20113;-38
2022/09/23 05:58:24;;;;;;;43.88;17.35;;;;;;;12.52;85.33;101489.28;5007506;28;20026;-40
2022/09/23 06:00:50;;;;;;;42.17;18.67;;;;;;;12.56;85.06;101494.31;5015792;28;20117;-38
2022/09/23 06:03:17;;;;;;;44.08;18.05;;;;;;;12.59;84.86;101489.41;4999002;28;20022;-38
2022/09/23 06:05:43;;;;;;;34.60;17.42;;;;;;;12.65;84.98;101493.25;4976940;28;20046;-39
2022/09/23 06:08:09;;;;;;;42.03;17.58;;;;;;;12.71;84.90;101496.06;4994770;28;20049;-39
2022/09/23 06:10:39;;;;;;;40.28;17.88;;;;;;;12.73;84.62;101491.31;4994011;28;20031;-38
2022/09/23 06:13:05;;;;;;;37.35;17.13;;;;;;;12.80;84.58;101490.63;4994026;28;20030;-37
2022/09/23 06:15:31;;;;;;;41.72;18.60;;;;;;;12.83;84.39;101492.97;4993944;28;20504;-38
2022/09/23 06:17:57;;;;;;;49.05;19.85;;;;;;;12.90;84.41;101486.66;4977759;28;20037;-38
2022/09/23 06:20:22;;;;;;;39.35;18.30;;;;;;;12.93;84.23;101480.88;4995811;28;20026;-38
2022/09/23 06:22:47;;;;;;;47.67;19.13;;;;;;;12.95;84.12;101494.19;4994076;28;20030;-38
2022/09/23 06:25:14;;;;;;;39.03;19.33;;;;;;;12.96;84.01;101485.06;4975851;28;20027;-38
2022/09/23 06:27:39;;;;;;;57.42;19.15;;;;;;;13.03;84.08;101486.00;4995622;28;20034;-38
2022/09/23 06:30:05;;;;;;;49.33;20.27;;;;;;;13.11;84.13;101482.41;4994743;28;20030;-38
2022/09/23 06:32:31;;;;;;;44.22;20.85;;;;;;;13.17;84.16;101484.38;4987182;28;20040;-38
2022/09/23 06:34:57;;;;;;;44.55;19.50;;;;;;;13.21;84.21;101479.44;5011986;28;20022;-38
2022/09/23 06:37:23;;;;;;;44.80;19.35;;;;;;;13.28;84.10;101488.53;4996082;28;20112;-38
2022/09/23 06:39:49;;;;;;;40.67;19.63;;;;;;;13.33;83.82;101478.00;4989401;28;20054;-39
2022/09/23 06:42:15;;;;;;;39.60;19.52;;;;;;;13.38;83.60;101473.72;4994324;28;20033;-38
2022/09/23 06:44:41;;;;;;;50.60;19.95;;;;;;;13.44;83.54;101477.56;4996145;28;20038;-37
2022/09/23 06:47:06;;;;;;;39.10;20.05;;;;;;;13.45;83.76;101468.41;4991380;28;20113;-37
2022/09/23 06:49:32;;;;;;;54.72;20.17;;;;;;;13.49;83.79;101480.53;4988384;28;20119;-39
2022/09/23 06:51:58;;;;;;;48.95;20.40;;;;;;;13.56;83.34;101480.63;4976684;28;20065;-39
2022/09/23 06:54:24;;;;;;;51.35;20.63;;;;;;;13.65;83.33;101476.81;4959301;28;20031;-40
2022/09/23 06:56:50;;;;;;;48.13;20.25;;;;;;;13.66;83.01;101480.34;4982934;28;20101;-39
2022/09/23 06:59:16;;;;;;;40.70;20.40;;;;;;;13.70;82.67;101487.91;4996037;28;20037;-39
2022/09/23 07:01:42;;;;;;;42.30;20.70;;;;;;;13.79;82.66;101473.25;4996134;28;20038;-40
2022/09/23 07:04:10;;;;;;;49.80;20.88;;;;;;;13.86;82.38;101470.66;4998615;28;20022;-40
2022/09/23 07:06:36;;;;;;;58.80;23.05;;;;;;;13.95;82.34;101479.50;4978659;28;20030;-39
2022/09/23 07:09:02;;;;;;;65.78;22.23;;;;;;;13.94;81.69;101483.22;4998503;28;20033;-39
2022/09/23 07:11:27;;;;;;;43.83;20.38;;;;;;;13.94;81.09;101483.22;4996956;28;20033;-38
2022/09/23 07:13:52;;;;;;;43.15;20.25;;;;;;;14.06;81.16;101476.31;4994509;28;20474;-38
2022/09/23 07:16:18;;;;;;;48.38;19.30;;;;;;;14.16;81.09;101482.25;4995918;28;20133;-38
2022/09/23 07:18:44;;;;;;;51.65;20.60;;;;;;;14.32;80.46;101481.19;4996212;28;20027;-38
2022/09/23 07:21:14;;;;;;;53.05;20.42;;;;;;;14.44;79.94;101478.81;4996223;28;20033;-39
2022/09/23 07:23:44;;;;;;;53.75;21.20;;;;;;;14.59;79.70;101484.25;4997159;28;20036;-39
2022/09/23 07:26:10;;;;;;;49.10;21.40;;;;;;;14.71;78.12;101475.38;4996573;28;20117;-38
2022/09/23 07:28:36;;;;;;;55.97;20.42;;;;;;;14.84;77.58;101480.09;4996779;28;20450;-38
2022/09/23 07:31:08;;;;;;;45.72;20.65;;;;;;;14.90;77.53;101483.88;4996025;28;20030;-38
2022/09/23 07:33:35;;;;;;;47.35;20.38;;;;;;;14.79;77.41;101482.53;4994634;28;20034;-39
2022/09/23 07:36:05;;;;;;;42.17;20.35;;;;;;;14.89;77.31;101474.09;4992035;28;20198;-39
2022/09/23 07:38:30;;;;;;;48.08;20.52;;;;;;;14.86;77.77;101482.63;4975151;28;20030;-39
2022/09/23 07:41:04;;;;;;;45.92;20.55;;;;;;;14.90;77.86;101483.88;4992624;28;20023;-39
2022/09/23 07:43:31;;;;;;;49.50;20.52;;;;;;;14.79;77.78;101479.00;4990717;28;20078;-38
2022/09/23 07:45:57;;;;;;;40.35;19.60;;;;;;;14.82;78.49;101484.84;4993631;28;20438;-38
2022/09/23 07:48:23;;;;;;;43.05;20.60;;;;;;;14.83;78.20;101483.00;4984933;28;20038;-39
2022/09/23 07:50:49;;;;;;;45.78;20.00;;;;;;;14.89;78.32;101482.22;4995379;28;20026;-38
2022/09/23 07:53:14;;;;;;;46.90;20.92;;;;;;;15.01;78.54;101485.22;4993296;28;20508;-39
2022/09/23 07:55:40;;;;;;;48.20;21.23;;;;;;;15.31;78.51;101488.63;4994001;28;20582;-38
2022/09/23 07:58:05;;;;;;;42.33;19.58;;;;;;;15.58;77.18;101482.31;4994454;28;20530;-39
2022/09/23 08:00:31;;;;;;;61.85;20.92;;;;;;;15.70;75.41;101481.81;4994833;28;20481;-39
2022/09/23 08:02:56;;;;;;;48.22;20.15;;;;;;;15.74;74.71;101485.78;4993928;28;20026;-37
2022/09/23 08:05:22;;;;;;;59.53;21.05;;;;;;;15.63;74.86;101480.88;4992968;28;20476;-39
2022/09/23 08:07:48;;;;;;;46.03;20.80;;;;;;;15.44;75.82;101485.16;4992484;28;20042;-38
2022/09/23 08:10:19;;;;;;;52.63;21.20;;;;;;;15.23;76.76;101495.03;4992836;28;20133;-39
2022/09/23 08:12:45;;;;;;;46.22;20.48;;;;;;;15.20;77.18;101490.00;4978090;28;20038;-38
2022/09/23 08:15:10;;;;;;;51.72;20.27;;;;;;;15.14;77.60;101485.38;4996377;28;20103;-38
2022/09/23 08:17:36;;;;;;;59.40;20.35;;;;;;;15.12;77.64;101482.84;4996733;28;20078;-38
2022/09/23 08:20:01;;;;;;;50.40;19.88;;;;;;;15.25;78.09;101486.69;4995315;28;20040;-37
2022/09/23 08:22:27;;;;;;;42.83;21.08;;;;;;;15.26;78.11;101493.78;4995520;28;20300;-39
2022/09/23 08:24:52;;;;;;;51.42;20.20;;;;;;;15.30;78.14;101493.22;4993488;28;20031;-39
2022/09/23 08:27:17;;;;;;;53.97;19.90;;;;;;;15.39;78.39;101499.31;4991117;28;20073;-39
2022/09/23 08:29:43;;;;;;;48.42;19.63;;;;;;;15.32;77.71;101495.69;4995128;28;20030;-39
2022/09/23 08:32:08;;;;;;;40.08;19.75;;;;;;;15.31;78.32;101494.03;4976275;28;20026;-40
2022/09/23 08:34:34;;;;;;;46.28;20.35;;;;;;;15.43;77.63;101489.75;4993258;28;20101;-39
2022/09/23 08:37:00;;;;;;;50.33;20.92;;;;;;;15.45;77.58;101490.38;4993972;28;20519;-39
2022/09/23 08:39:25;;;;;;;45.58;19.83;;;;;;;15.63;77.07;101500.72;4994327;28;20034;-39
2022/09/23 08:42:30;;;;;;;59.50;20.02;;;;;;;15.68;75.62;101500.97;4995494;28;20474;-39
2022/09/23 08:44:57;;;;;;;46.88;19.65;;;;;;;15.76;75.93;101498.13;4953012;29;20138;-38
2022/09/23 08:47:27;;;;;;;40.40;19.80;;;;;;;16.00;75.81;101499.47;4987636;28;20046;-38
2022/09/23 08:49:56;;;;;;;42.60;18.63;;;;;;;16.12;75.15;101496.22;4993593;28;20058;-39
2022/09/23 08:52:32;;;;;;;48.33;19.67;;;;;;;16.20;74.41;101496.88;4992683;28;20129;-39
2022/09/23 08:54:58;;;;;;;44.88;18.42;;;;;;;16.51;74.30;101497.38;5010178;28;20037;-39
2022/09/23 08:57:32;;;;;;;47.97;18.40;;;;;;;16.74;72.32;101492.41;4989203;28;20022;-38
2022/09/23 08:59:59;;;;;;;40.22;18.15;;;;;;;17.15;70.25;101499.56;4991538;28;20066;-39
2022/09/23 09:02:26;;;;;;;42.85;17.63;;;;;;;17.09;70.60;101501.25;4995070;28;20022;-39
2022/09/23 09:04:59;;;;;;;43.78;18.65;;;;;;;17.00;71.13;101496.22;4995480;28;20026;-39
2022/09/23 09:07:29;;;;;;;47.85;18.73;;;;;;;16.86;71.08;101490.78;4951737;28;1113572;-39
2022/09/23 09:10:13;;;;;;;32.65;18.38;;;;;;;16.78;71.01;101496.41;4975443;28;20062;-39
2022/09/23 09:13:02;;;;;;;44.20;19.48;;;;;;;16.54;72.09;101494.25;4974440;28;20122;-38
2022/09/23 09:15:27;;;;;;;38.50;18.88;;;;;;;16.59;71.47;101494.47;4975069;28;20042;-37
2022/09/23 09:18:10;;;;;;;43.22;18.45;;;;;;;16.41;71.89;101498.59;4979672;28;20031;-37
2022/09/23 09:20:55;;;;;;;36.88;18.40;;;;;;;16.65;71.73;101496.38;4978320;28;20027;-38
2022/09/23 09:23:45;;;;;;;39.10;18.27;;;;;;;16.58;71.28;101498.22;4979177;28;20033;-37
2022/09/23 09:26:15;;;;;;;38.85;17.05;;;;;;;16.73;71.46;101501.59;4979040;28;20026;-38
2022/09/23 09:28:44;;;;;;;30.52;17.20;;;;;;;16.74;70.93;101497.00;4975620;28;20035;-39
2022/09/23 09:31:32;;;;;;;37.08;17.63;;;;;;;16.79;71.46;101494.53;4978682;28;20031;-38
2022/09/23 09:34:19;;;;;;;33.72;17.35;;;;;;;16.92;70.44;101491.00;4978431;28;20027;-39
2022/09/23 09:37:16;;;;;;;34.58;16.42;;;;;;;17.27;70.37;101481.59;4976250;28;20486;-36
2022/09/23 09:39:42;;;;;;;36.10;17.00;;;;;;;17.74;67.89;101484.19;4976281;28;20133;-38
2022/09/23 09:42:13;;;;;;;34.28;16.42;;;;;;;17.74;67.25;101476.88;4978041;28;20025;-39
2022/09/23 09:44:52;;;;;;;38.97;16.48;;;;;;;17.70;67.13;101478.34;4972687;28;20739;-38
2022/09/23 09:47:45;;;;;;;32.45;16.88;;;;;;;17.59;67.93;101479.03;4993044;28;20514;-38
2022/09/23 09:50:20;;;;;;;34.63;17.33;;;;;;;17.36;68.46;101475.94;4976001;28;20118;-37
2022/09/23 09:52:49;;;;;;;41.13;17.25;;;;;;;17.25;68.36;101470.06;4957868;28;20094;-37
2022/09/23 09:55:26;;;;;;;45.33;17.17;;;;;;;17.16;68.57;101474.03;4979826;28;20434;-37
2022/09/23 09:58:04;;;;;;;35.63;16.23;;;;;;;17.09;68.84;101478.66;4990066;28;20125;-38
2022/09/23 10:00:29;;;;;;;42.35;17.50;;;;;;;17.02;69.66;101472.38;4972599;28;20440;-37
2022/09/23 10:02:59;;;;;;;32.92;15.50;;;;;;;17.02;70.49;101472.38;4974372;28;21150;-39
2022/09/23 10:05:31;;;;;;;30.48;15.23;;;;;;;17.14;69.80;101464.41;4992476;28;20089;-38
2022/09/23 10:08:14;;;;;;;34.05;14.50;;;;;;;17.07;68.98;101468.00;4991040;28;20054;-38
2022/09/23 10:11:09;;;;;;;31.48;14.32;;;;;;;17.11;68.80;101462.94;4994499;28;20042;-38
2022/09/23 10:13:35;;;;;;;38.85;15.90;;;;;;;16.94;69.69;101461.72;4995464;28;20504;-38
2022/09/23 10:16:02;;;;;;;28.48;14.57;;;;;;;16.97;69.84;101469.47;4975579;28;20026;-38
2022/09/23 10:18:48;;;;;;;31.80;13.80;;;;;;;16.97;70.33;101464.84;4993825;28;20015;-38
2022/09/23 10:21:15;;;;;;;33.53;15.18;;;;;;;16.98;69.84;101460.25;4999875;28;20141;-38
2022/09/23 10:23:43;;;;;;;29.88;14.50;;;;;;;17.01;69.82;101460.69;4992977;28;20026;-37
2022/09/23 10:26:11;;;;;;;34.00;15.15;;;;;;;17.22;69.41;101456.91;4981659;28;20034;-37
2022/09/23 10:28:45;;;;;;;35.58;14.55;;;;;;;17.38;69.41;101457.47;4981096;28;20042;-38
2022/09/23 10:31:14;;;;;;;39.75;14.00;;;;;;;17.34;69.58;101462.53;4998527;28;20121;-38
2022/09/23 10:33:43;;;;;;;26.17;14.35;;;;;;;17.39;69.89;101461.91;4990976;28;20027;-39
2022/09/23 10:36:09;;;;;;;33.55;14.65;;;;;;;17.32;69.59;101464.59;4995683;28;20031;-39
2022/09/23 10:38:35;;;;;;;32.65;14.20;;;;;;;17.39;69.67;101457.28;4996020;28;20413;-37
2022/09/23 10:46:39;;;;;;;35.50;14.55;;;;;;;17.50;68.60;101450.34;4976224;28;20120;-38
2022/09/23 10:49:36;;;;;;;36.10;14.33;;;;;;;17.34;69.29;101455.19;4978654;28;20038;-39
2022/09/23 10:52:10;;;;;;;25.42;13.63;;;;;;;17.70;68.21;101445.69;4999079;28;20262;-38
2022/09/23 10:54:59;;;;;;;34.75;14.65;;;;;;;17.92;67.87;101450.88;4999119;28;20042;-38
2022/09/23 10:57:40;;;;;;;36.00;14.63;;;;;;;17.81;67.55;101459.72;4994817;28;20382;-38
2022/09/23 11:00:31;;;;;;;30.48;13.43;;;;;;;17.94;67.11;101460.50;4986951;28;20566;-38
2022/09/23 11:03:40;;;;;;;35.15;14.40;;;;;;;18.19;66.77;101446.13;4977130;28;20026;-38
2022/09/23 11:06:36;;;;;;;25.10;13.80;;;;;;;18.43;65.92;101439.94;4996793;28;20026;-38
2022/09/23 11:09:24;;;;;;;24.92;13.75;;;;;;;18.51;65.11;101443.44;4979586;28;20101;-40
2022/09/23 11:11:55;;;;;;;29.80;14.05;;;;;;;18.74;64.75;101448.31;4981237;28;20038;-38
2022/09/23 11:14:37;;;;;;;28.58;13.68;;;;;;;18.86;64.05;101452.03;4997965;28;20022;-38
2022/09/23 11:17:27;;;;;;;33.80;14.25;;;;;;;18.96;63.71;101441.44;4985800;28;20042;-38
2022/09/23 11:20:14;;;;;;;33.42;13.85;;;;;;;19.12;62.88;101447.41;4994279;28;20057;-38
2022/09/23 11:22:58;;;;;;;33.28;13.65;;;;;;;19.28;63.19;101452.28;4993701;28;20026;-38
2022/09/23 11:25:46;;;;;;;28.02;13.93;;;;;;;18.88;63.18;101447.19;4993123;28;20034;-38
2022/09/23 11:28:28;;;;;;;31.75;14.38;;;;;;;18.93;63.32;101439.19;4973279;28;20034;-38
2022/09/23 11:31:19;;;;;;;27.05;13.52;;;;;;;19.17;63.43;101439.34;4988737;28;20069;-37
2022/09/23 11:33:56;;;;;;;29.60;12.98;;;;;;;19.79;61.41;101431.16;4992818;28;20034;-38